sensor_id;sensor_type;location;lat;lon;timestamp;P1;durP1;ratioP1;P2;durP2;ratioP2
74267;SDS011;62638;51.362;12.472;2023-04-23T00:00:06;8.40;;;3.67;;
74267;SDS011;62638;51.362;12.472;2023-04-23T00:02:35;5.55;;;3.40;;
74267;SDS011;62638;51.362;12.472;2023-04-23T00:05:03;6.80;;;4.00;;
74267;SDS011;62638;51.362;12.472;2023-04-23T00:07:30;7.00;;;4.07;;
74267;SDS011;62638;51.362;12.472;2023-04-23T00:09:57;6.13;;;3.72;;
74267;SDS011;62638;51.362;12.472;2023-04-23T00:12:24;5.40;;;3.90;;
74267;SDS011;62638;51.362;12.472;2023-04-23T00:14:50;7.57;;;4.20;;
74267;SDS011;62638;51.362;12.472;2023-04-23T00:17:16;6.28;;;3.88;;
74267;SDS011;62638;51.362;12.472;2023-04-23T00:19:41;6.23;;;3.43;;
74267;SDS011;62638;51.362;12.472;2023-04-23T00:22:06;6.17;;;3.17;;
74267;SDS011;62638;51.362;12.472;2023-04-23T00:24:32;7.25;;;3.88;;
74267;SDS011;62638;51.362;12.472;2023-04-23T00:29:25;7.28;;;3.65;;
74267;SDS011;62638;51.362;12.472;2023-04-23T00:31:50;5.28;;;3.30;;
74267;SDS011;62638;51.362;12.472;2023-04-23T00:34:15;6.57;;;3.63;;
74267;SDS011;62638;51.362;12.472;2023-04-23T00:36:41;5.67;;;3.20;;
74267;SDS011;62638;51.362;12.472;2023-04-23T00:39:06;5.18;;;3.00;;
74267;SDS011;62638;51.362;12.472;2023-04-23T00:41:31;4.80;;;2.87;;
74267;SDS011;62638;51.362;12.472;2023-04-23T00:43:58;5.43;;;3.00;;
74267;SDS011;62638;51.362;12.472;2023-04-23T00:46:24;4.18;;;2.83;;
74267;SDS011;62638;51.362;12.472;2023-04-23T00:48:50;5.95;;;2.92;;
74267;SDS011;62638;51.362;12.472;2023-04-23T00:51:16;3.72;;;2.85;;
74267;SDS011;62638;51.362;12.472;2023-04-23T00:53:42;6.13;;;3.17;;
74267;SDS011;62638;51.362;12.472;2023-04-23T00:56:07;7.53;;;2.65;;
74267;SDS011;62638;51.362;12.472;2023-04-23T00:58:33;4.05;;;2.97;;
74267;SDS011;62638;51.362;12.472;2023-04-23T01:00:59;5.55;;;3.03;;
74267;SDS011;62638;51.362;12.472;2023-04-23T01:03:26;4.22;;;2.40;;
74267;SDS011;62638;51.362;12.472;2023-04-23T01:05:53;4.45;;;2.58;;
74267;SDS011;62638;51.362;12.472;2023-04-23T01:08:19;5.10;;;3.55;;
74267;SDS011;62638;51.362;12.472;2023-04-23T01:10:47;8.73;;;2.90;;
74267;SDS011;62638;51.362;12.472;2023-04-23T01:13:13;5.18;;;3.15;;
74267;SDS011;62638;51.362;12.472;2023-04-23T01:15:39;4.57;;;2.70;;
74267;SDS011;62638;51.362;12.472;2023-04-23T01:18:05;4.47;;;2.60;;
74267;SDS011;62638;51.362;12.472;2023-04-23T01:20:31;5.68;;;3.33;;
74267;SDS011;62638;51.362;12.472;2023-04-23T01:22:58;5.45;;;3.17;;
74267;SDS011;62638;51.362;12.472;2023-04-23T01:25:23;4.18;;;3.42;;
74267;SDS011;62638;51.362;12.472;2023-04-23T01:27:48;4.30;;;2.70;;
74267;SDS011;62638;51.362;12.472;2023-04-23T01:30:14;4.32;;;2.75;;
74267;SDS011;62638;51.362;12.472;2023-04-23T01:32:40;3.63;;;2.35;;
74267;SDS011;62638;51.362;12.472;2023-04-23T01:35:05;5.97;;;3.08;;
74267;SDS011;62638;51.362;12.472;2023-04-23T01:37:32;4.38;;;2.95;;
74267;SDS011;62638;51.362;12.472;2023-04-23T01:39:58;5.32;;;2.75;;
74267;SDS011;62638;51.362;12.472;2023-04-23T01:42:23;4.20;;;2.63;;
74267;SDS011;62638;51.362;12.472;2023-04-23T01:44:49;5.57;;;2.70;;
74267;SDS011;62638;51.362;12.472;2023-04-23T01:47:14;4.57;;;3.00;;
74267;SDS011;62638;51.362;12.472;2023-04-23T01:49:40;4.75;;;2.45;;
74267;SDS011;62638;51.362;12.472;2023-04-23T01:52:05;4.00;;;2.50;;
74267;SDS011;62638;51.362;12.472;2023-04-23T01:54:31;4.13;;;2.67;;
74267;SDS011;62638;51.362;12.472;2023-04-23T01:56:56;6.70;;;3.07;;
74267;SDS011;62638;51.362;12.472;2023-04-23T01:59:22;4.32;;;2.53;;
74267;SDS011;62638;51.362;12.472;2023-04-23T02:01:48;4.43;;;2.87;;
74267;SDS011;62638;51.362;12.472;2023-04-23T02:04:14;4.25;;;2.78;;
74267;SDS011;62638;51.362;12.472;2023-04-23T02:06:41;4.80;;;3.00;;
74267;SDS011;62638;51.362;12.472;2023-04-23T02:09:09;4.93;;;2.58;;
74267;SDS011;62638;51.362;12.472;2023-04-23T02:11:35;3.97;;;2.22;;
74267;SDS011;62638;51.362;12.472;2023-04-23T02:14:01;4.73;;;2.60;;
74267;SDS011;62638;51.362;12.472;2023-04-23T02:16:26;5.97;;;2.78;;
74267;SDS011;62638;51.362;12.472;2023-04-23T02:18:52;6.70;;;3.28;;
74267;SDS011;62638;51.362;12.472;2023-04-23T02:21:18;5.05;;;3.00;;
74267;SDS011;62638;51.362;12.472;2023-04-23T02:23:43;5.30;;;2.97;;
74267;SDS011;62638;51.362;12.472;2023-04-23T02:26:08;5.57;;;3.20;;
74267;SDS011;62638;51.362;12.472;2023-04-23T02:28:34;5.72;;;3.20;;
74267;SDS011;62638;51.362;12.472;2023-04-23T02:30:59;5.53;;;3.20;;
74267;SDS011;62638;51.362;12.472;2023-04-23T02:33:24;5.75;;;3.47;;
74267;SDS011;62638;51.362;12.472;2023-04-23T02:35:50;5.90;;;2.80;;
74267;SDS011;62638;51.362;12.472;2023-04-23T02:38:15;4.37;;;2.93;;
74267;SDS011;62638;51.362;12.472;2023-04-23T02:40:41;5.97;;;3.28;;
74267;SDS011;62638;51.362;12.472;2023-04-23T02:43:07;4.90;;;3.10;;
74267;SDS011;62638;51.362;12.472;2023-04-23T02:45:32;4.57;;;3.60;;
74267;SDS011;62638;51.362;12.472;2023-04-23T02:47:58;3.90;;;2.83;;
74267;SDS011;62638;51.362;12.472;2023-04-23T02:50:23;5.10;;;3.03;;
74267;SDS011;62638;51.362;12.472;2023-04-23T02:52:48;7.60;;;3.83;;
74267;SDS011;62638;51.362;12.472;2023-04-23T02:55:13;7.63;;;4.17;;
74267;SDS011;62638;51.362;12.472;2023-04-23T02:57:39;6.68;;;3.75;;
74267;SDS011;62638;51.362;12.472;2023-04-23T03:00:05;6.82;;;3.13;;
74267;SDS011;62638;51.362;12.472;2023-04-23T03:02:31;9.18;;;4.00;;
74267;SDS011;62638;51.362;12.472;2023-04-23T03:04:56;6.55;;;3.08;;
74267;SDS011;62638;51.362;12.472;2023-04-23T03:07:22;7.32;;;3.40;;
74267;SDS011;62638;51.362;12.472;2023-04-23T03:09:47;6.30;;;3.70;;
74267;SDS011;62638;51.362;12.472;2023-04-23T03:12:12;5.37;;;3.20;;
74267;SDS011;62638;51.362;12.472;2023-04-23T03:14:38;8.50;;;3.67;;
74267;SDS011;62638;51.362;12.472;2023-04-23T03:17:03;6.40;;;4.10;;
74267;SDS011;62638;51.362;12.472;2023-04-23T03:19:28;6.50;;;3.53;;
74267;SDS011;62638;51.362;12.472;2023-04-23T03:21:53;5.63;;;3.37;;
74267;SDS011;62638;51.362;12.472;2023-04-23T03:24:20;7.57;;;4.00;;
74267;SDS011;62638;51.362;12.472;2023-04-23T03:26:46;5.72;;;3.33;;
74267;SDS011;62638;51.362;12.472;2023-04-23T03:29:11;6.43;;;4.30;;
74267;SDS011;62638;51.362;12.472;2023-04-23T03:31:37;6.63;;;3.80;;
74267;SDS011;62638;51.362;12.472;2023-04-23T03:34:02;5.53;;;2.83;;
74267;SDS011;62638;51.362;12.472;2023-04-23T03:36:27;4.27;;;2.80;;
74267;SDS011;62638;51.362;12.472;2023-04-23T03:38:53;6.13;;;3.42;;
74267;SDS011;62638;51.362;12.472;2023-04-23T03:41:18;3.67;;;2.63;;
74267;SDS011;62638;51.362;12.472;2023-04-23T03:43:43;6.33;;;3.63;;
74267;SDS011;62638;51.362;12.472;2023-04-23T03:46:08;5.97;;;2.85;;
74267;SDS011;62638;51.362;12.472;2023-04-23T03:48:34;5.43;;;3.25;;
74267;SDS011;62638;51.362;12.472;2023-04-23T03:50:59;4.45;;;2.47;;
74267;SDS011;62638;51.362;12.472;2023-04-23T03:53:25;4.53;;;3.37;;
74267;SDS011;62638;51.362;12.472;2023-04-23T03:55:50;5.40;;;3.20;;
74267;SDS011;62638;51.362;12.472;2023-04-23T03:58:15;6.37;;;3.00;;
74267;SDS011;62638;51.362;12.472;2023-04-23T04:00:41;5.93;;;3.40;;
74267;SDS011;62638;51.362;12.472;2023-04-23T04:03:06;8.20;;;3.80;;
74267;SDS011;62638;51.362;12.472;2023-04-23T04:05:32;6.22;;;3.63;;
74267;SDS011;62638;51.362;12.472;2023-04-23T04:07:58;6.80;;;3.30;;
74267;SDS011;62638;51.362;12.472;2023-04-23T04:10:23;5.10;;;3.03;;
74267;SDS011;62638;51.362;12.472;2023-04-23T04:12:48;4.60;;;2.90;;
74267;SDS011;62638;51.362;12.472;2023-04-23T04:15:14;5.90;;;3.10;;
74267;SDS011;62638;51.362;12.472;2023-04-23T04:17:40;5.68;;;2.97;;
74267;SDS011;62638;51.362;12.472;2023-04-23T04:20:06;5.00;;;3.08;;
74267;SDS011;62638;51.362;12.472;2023-04-23T04:22:35;8.15;;;3.38;;
74267;SDS011;62638;51.362;12.472;2023-04-23T04:25:00;5.13;;;3.10;;
74267;SDS011;62638;51.362;12.472;2023-04-23T04:27:25;6.35;;;3.38;;
74267;SDS011;62638;51.362;12.472;2023-04-23T04:29:51;5.28;;;3.47;;
74267;SDS011;62638;51.362;12.472;2023-04-23T04:32:16;5.93;;;3.13;;
74267;SDS011;62638;51.362;12.472;2023-04-23T04:34:42;6.20;;;3.03;;
74267;SDS011;62638;51.362;12.472;2023-04-23T04:37:07;4.28;;;2.75;;
74267;SDS011;62638;51.362;12.472;2023-04-23T04:39:34;3.95;;;2.60;;
74267;SDS011;62638;51.362;12.472;2023-04-23T04:42:00;6.55;;;3.03;;
74267;SDS011;62638;51.362;12.472;2023-04-23T04:44:27;7.43;;;3.55;;
74267;SDS011;62638;51.362;12.472;2023-04-23T04:46:52;5.75;;;3.22;;
74267;SDS011;62638;51.362;12.472;2023-04-23T04:49:18;6.73;;;3.43;;
74267;SDS011;62638;51.362;12.472;2023-04-23T04:51:43;6.47;;;3.30;;
74267;SDS011;62638;51.362;12.472;2023-04-23T04:54:09;5.82;;;3.20;;
74267;SDS011;62638;51.362;12.472;2023-04-23T04:56:34;5.28;;;3.33;;
74267;SDS011;62638;51.362;12.472;2023-04-23T04:58:59;6.55;;;3.25;;
74267;SDS011;62638;51.362;12.472;2023-04-23T05:01:27;4.38;;;3.40;;
74267;SDS011;62638;51.362;12.472;2023-04-23T05:03:53;6.88;;;3.45;;
74267;SDS011;62638;51.362;12.472;2023-04-23T05:06:19;5.55;;;3.33;;
74267;SDS011;62638;51.362;12.472;2023-04-23T05:08:44;6.30;;;3.50;;
74267;SDS011;62638;51.362;12.472;2023-04-23T05:11:18;7.13;;;4.03;;
74267;SDS011;62638;51.362;12.472;2023-04-23T05:13:45;6.15;;;2.97;;
74267;SDS011;62638;51.362;12.472;2023-04-23T05:16:13;5.90;;;3.25;;
74267;SDS011;62638;51.362;12.472;2023-04-23T05:18:39;7.25;;;3.15;;
74267;SDS011;62638;51.362;12.472;2023-04-23T05:21:05;6.47;;;2.70;;
74267;SDS011;62638;51.362;12.472;2023-04-23T05:23:31;5.97;;;3.20;;
74267;SDS011;62638;51.362;12.472;2023-04-23T05:26:00;6.50;;;3.03;;
74267;SDS011;62638;51.362;12.472;2023-04-23T05:28:28;5.30;;;2.53;;
74267;SDS011;62638;51.362;12.472;2023-04-23T05:30:54;4.35;;;2.97;;
74267;SDS011;62638;51.362;12.472;2023-04-23T05:33:20;6.18;;;3.60;;
74267;SDS011;62638;51.362;12.472;2023-04-23T05:35:45;6.10;;;2.70;;
74267;SDS011;62638;51.362;12.472;2023-04-23T05:38:11;4.78;;;2.50;;
74267;SDS011;62638;51.362;12.472;2023-04-23T05:40:36;5.40;;;2.57;;
74267;SDS011;62638;51.362;12.472;2023-04-23T05:43:01;4.43;;;2.25;;
74267;SDS011;62638;51.362;12.472;2023-04-23T05:45:27;4.68;;;2.53;;
74267;SDS011;62638;51.362;12.472;2023-04-23T05:47:52;4.85;;;2.05;;
74267;SDS011;62638;51.362;12.472;2023-04-23T05:50:18;3.45;;;2.35;;
74267;SDS011;62638;51.362;12.472;2023-04-23T05:52:44;3.50;;;1.90;;
74267;SDS011;62638;51.362;12.472;2023-04-23T05:55:10;3.22;;;1.95;;
74267;SDS011;62638;51.362;12.472;2023-04-23T05:57:36;3.10;;;2.13;;
74267;SDS011;62638;51.362;12.472;2023-04-23T06:00:02;3.15;;;1.92;;
74267;SDS011;62638;51.362;12.472;2023-04-23T06:02:29;3.95;;;2.22;;
74267;SDS011;62638;51.362;12.472;2023-04-23T06:04:55;3.22;;;1.70;;
74267;SDS011;62638;51.362;12.472;2023-04-23T06:07:20;6.77;;;2.37;;
74267;SDS011;62638;51.362;12.472;2023-04-23T06:09:45;4.97;;;2.17;;
74267;SDS011;62638;51.362;12.472;2023-04-23T06:12:10;3.47;;;2.63;;
74267;SDS011;62638;51.362;12.472;2023-04-23T06:14:36;5.07;;;2.40;;
74267;SDS011;62638;51.362;12.472;2023-04-23T06:17:01;3.58;;;1.92;;
74267;SDS011;62638;51.362;12.472;2023-04-23T06:19:26;3.17;;;1.60;;
74267;SDS011;62638;51.362;12.472;2023-04-23T06:21:52;3.67;;;1.90;;
74267;SDS011;62638;51.362;12.472;2023-04-23T06:24:18;3.00;;;1.90;;
74267;SDS011;62638;51.362;12.472;2023-04-23T06:26:43;2.00;;;1.52;;
74267;SDS011;62638;51.362;12.472;2023-04-23T06:29:08;3.00;;;1.90;;
74267;SDS011;62638;51.362;12.472;2023-04-23T06:31:34;3.00;;;1.60;;
74267;SDS011;62638;51.362;12.472;2023-04-23T06:34:00;3.63;;;1.85;;
74267;SDS011;62638;51.362;12.472;2023-04-23T06:36:25;1.80;;;1.13;;
74267;SDS011;62638;51.362;12.472;2023-04-23T06:38:50;2.53;;;1.63;;
74267;SDS011;62638;51.362;12.472;2023-04-23T06:41:15;2.37;;;1.63;;
74267;SDS011;62638;51.362;12.472;2023-04-23T06:43:41;2.72;;;1.60;;
74267;SDS011;62638;51.362;12.472;2023-04-23T06:46:06;2.63;;;1.67;;
74267;SDS011;62638;51.362;12.472;2023-04-23T06:48:31;4.23;;;2.10;;
74267;SDS011;62638;51.362;12.472;2023-04-23T06:50:57;3.78;;;1.60;;
74267;SDS011;62638;51.362;12.472;2023-04-23T06:53:22;2.00;;;1.75;;
74267;SDS011;62638;51.362;12.472;2023-04-23T06:55:48;2.87;;;1.73;;
74267;SDS011;62638;51.362;12.472;2023-04-23T06:58:15;2.30;;;1.60;;
74267;SDS011;62638;51.362;12.472;2023-04-23T07:00:40;2.28;;;1.15;;
74267;SDS011;62638;51.362;12.472;2023-04-23T07:03:06;4.05;;;1.75;;
74267;SDS011;62638;51.362;12.472;2023-04-23T07:05:31;4.43;;;1.40;;
74267;SDS011;62638;51.362;12.472;2023-04-23T07:07:56;1.67;;;1.30;;
74267;SDS011;62638;51.362;12.472;2023-04-23T07:10:22;4.23;;;1.60;;
74267;SDS011;62638;51.362;12.472;2023-04-23T07:12:49;3.47;;;1.48;;
74267;SDS011;62638;51.362;12.472;2023-04-23T07:15:14;2.85;;;1.60;;
74267;SDS011;62638;51.362;12.472;2023-04-23T07:17:39;2.20;;;1.33;;
74267;SDS011;62638;51.362;12.472;2023-04-23T07:20:05;2.25;;;1.65;;
74267;SDS011;62638;51.362;12.472;2023-04-23T07:22:33;2.45;;;1.60;;
74267;SDS011;62638;51.362;12.472;2023-04-23T07:24:59;2.28;;;1.30;;
74267;SDS011;62638;51.362;12.472;2023-04-23T07:27:25;2.45;;;1.30;;
74267;SDS011;62638;51.362;12.472;2023-04-23T07:29:50;2.92;;;1.63;;
74267;SDS011;62638;51.362;12.472;2023-04-23T07:32:16;2.83;;;1.30;;
74267;SDS011;62638;51.362;12.472;2023-04-23T07:34:41;2.35;;;1.27;;
74267;SDS011;62638;51.362;12.472;2023-04-23T07:37:07;1.63;;;1.23;;
74267;SDS011;62638;51.362;12.472;2023-04-23T07:39:32;1.77;;;1.27;;
74267;SDS011;62638;51.362;12.472;2023-04-23T07:41:57;2.15;;;1.05;;
74267;SDS011;62638;51.362;12.472;2023-04-23T07:44:23;1.90;;;1.23;;
74267;SDS011;62638;51.362;12.472;2023-04-23T07:46:49;2.15;;;1.75;;
74267;SDS011;62638;51.362;12.472;2023-04-23T07:49:14;1.77;;;1.08;;
74267;SDS011;62638;51.362;12.472;2023-04-23T07:51:40;3.03;;;1.48;;
74267;SDS011;62638;51.362;12.472;2023-04-23T07:54:05;1.90;;;1.23;;
74267;SDS011;62638;51.362;12.472;2023-04-23T07:56:31;3.75;;;1.90;;
74267;SDS011;62638;51.362;12.472;2023-04-23T07:58:57;2.03;;;0.93;;
74267;SDS011;62638;51.362;12.472;2023-04-23T08:01:23;1.90;;;0.98;;
74267;SDS011;62638;51.362;12.472;2023-04-23T08:03:49;1.73;;;1.20;;
74267;SDS011;62638;51.362;12.472;2023-04-23T08:06:14;2.70;;;1.17;;
74267;SDS011;62638;51.362;12.472;2023-04-23T08:08:39;2.03;;;1.08;;
74267;SDS011;62638;51.362;12.472;2023-04-23T08:11:05;2.00;;;1.17;;
74267;SDS011;62638;51.362;12.472;2023-04-23T08:13:31;2.13;;;1.35;;
74267;SDS011;62638;51.362;12.472;2023-04-23T08:15:56;1.42;;;1.05;;
74267;SDS011;62638;51.362;12.472;2023-04-23T08:18:21;1.50;;;0.80;;
74267;SDS011;62638;51.362;12.472;2023-04-23T08:20:47;1.30;;;0.90;;
74267;SDS011;62638;51.362;12.472;2023-04-23T08:23:13;2.10;;;0.85;;
74267;SDS011;62638;51.362;12.472;2023-04-23T08:25:38;2.37;;;1.10;;
74267;SDS011;62638;51.362;12.472;2023-04-23T08:28:04;2.72;;;1.55;;
74267;SDS011;62638;51.362;12.472;2023-04-23T08:30:29;5.97;;;1.35;;
74267;SDS011;62638;51.362;12.472;2023-04-23T08:32:54;3.37;;;0.83;;
74267;SDS011;62638;51.362;12.472;2023-04-23T08:35:21;2.33;;;1.58;;
74267;SDS011;62638;51.362;12.472;2023-04-23T08:37:47;1.67;;;1.10;;
74267;SDS011;62638;51.362;12.472;2023-04-23T08:40:12;1.70;;;1.10;;
74267;SDS011;62638;51.362;12.472;2023-04-23T08:42:41;1.40;;;1.02;;
74267;SDS011;62638;51.362;12.472;2023-04-23T08:47:38;1.73;;;1.02;;
74267;SDS011;62638;51.362;12.472;2023-04-23T08:50:07;1.27;;;0.80;;
74267;SDS011;62638;51.362;12.472;2023-04-23T08:52:34;1.75;;;1.02;;
74267;SDS011;62638;51.362;12.472;2023-04-23T08:55:04;1.17;;;0.98;;
74267;SDS011;62638;51.362;12.472;2023-04-23T08:57:34;1.90;;;1.10;;
74267;SDS011;62638;51.362;12.472;2023-04-23T09:00:02;1.73;;;0.98;;
74267;SDS011;62638;51.362;12.472;2023-04-23T09:02:30;1.50;;;1.00;;
74267;SDS011;62638;51.362;12.472;2023-04-23T09:04:56;1.70;;;0.80;;
74267;SDS011;62638;51.362;12.472;2023-04-23T09:07:22;2.17;;;0.98;;
74267;SDS011;62638;51.362;12.472;2023-04-23T09:09:47;1.90;;;0.80;;
74267;SDS011;62638;51.362;12.472;2023-04-23T09:12:13;1.55;;;0.82;;
74267;SDS011;62638;51.362;12.472;2023-04-23T09:14:38;0.88;;;0.60;;
74267;SDS011;62638;51.362;12.472;2023-04-23T09:17:04;2.20;;;1.30;;
74267;SDS011;62638;51.362;12.472;2023-04-23T09:19:29;2.70;;;1.07;;
74267;SDS011;62638;51.362;12.472;2023-04-23T09:21:55;1.88;;;1.05;;
74267;SDS011;62638;51.362;12.472;2023-04-23T09:24:21;2.35;;;1.30;;
74267;SDS011;62638;51.362;12.472;2023-04-23T09:26:48;2.33;;;1.23;;
74267;SDS011;62638;51.362;12.472;2023-04-23T09:29:21;3.10;;;1.55;;
74267;SDS011;62638;51.362;12.472;2023-04-23T09:31:51;1.98;;;1.33;;
74267;SDS011;62638;51.362;12.472;2023-04-23T09:34:21;3.65;;;1.85;;
74267;SDS011;62638;51.362;12.472;2023-04-23T09:36:48;2.78;;;1.33;;
74267;SDS011;62638;51.362;12.472;2023-04-23T09:39:15;3.03;;;1.52;;
74267;SDS011;62638;51.362;12.472;2023-04-23T09:41:42;1.90;;;1.17;;
74267;SDS011;62638;51.362;12.472;2023-04-23T09:46:38;2.05;;;1.38;;
74267;SDS011;62638;51.362;12.472;2023-04-23T09:49:06;1.85;;;1.25;;
74267;SDS011;62638;51.362;12.472;2023-04-23T09:51:32;2.70;;;1.60;;
74267;SDS011;62638;51.362;12.472;2023-04-23T09:54:00;7.85;;;2.03;;
74267;SDS011;62638;51.362;12.472;2023-04-23T09:56:26;2.45;;;1.42;;
74267;SDS011;62638;51.362;12.472;2023-04-23T09:58:51;2.05;;;1.40;;
74267;SDS011;62638;51.362;12.472;2023-04-23T10:01:17;3.13;;;1.33;;
74267;SDS011;62638;51.362;12.472;2023-04-23T10:03:42;1.90;;;1.20;;
74267;SDS011;62638;51.362;12.472;2023-04-23T10:06:14;2.35;;;1.60;;
74267;SDS011;62638;51.362;12.472;2023-04-23T10:08:39;2.47;;;1.40;;
74267;SDS011;62638;51.362;12.472;2023-04-23T10:11:05;2.05;;;1.23;;
74267;SDS011;62638;51.362;12.472;2023-04-23T10:13:31;2.13;;;1.10;;
74267;SDS011;62638;51.362;12.472;2023-04-23T10:15:59;3.47;;;1.50;;
74267;SDS011;62638;51.362;12.472;2023-04-23T10:18:26;1.58;;;0.98;;
74267;SDS011;62638;51.362;12.472;2023-04-23T10:20:54;2.00;;;1.23;;
74267;SDS011;62638;51.362;12.472;2023-04-23T10:23:21;1.75;;;1.00;;
74267;SDS011;62638;51.362;12.472;2023-04-23T10:25:48;1.63;;;1.10;;
74267;SDS011;62638;51.362;12.472;2023-04-23T10:28:16;1.83;;;1.15;;
74267;SDS011;62638;51.362;12.472;2023-04-23T10:30:46;2.25;;;1.20;;
74267;SDS011;62638;51.362;12.472;2023-04-23T10:33:13;1.50;;;1.00;;
74267;SDS011;62638;51.362;12.472;2023-04-23T10:35:39;1.30;;;0.88;;
74267;SDS011;62638;51.362;12.472;2023-04-23T10:38:04;1.20;;;1.00;;
74267;SDS011;62638;51.362;12.472;2023-04-23T10:40:31;0.90;;;0.70;;
74267;SDS011;62638;51.362;12.472;2023-04-23T10:42:58;2.17;;;1.00;;
74267;SDS011;62638;51.362;12.472;2023-04-23T10:45:24;1.85;;;0.80;;
74267;SDS011;62638;51.362;12.472;2023-04-23T10:47:49;1.45;;;0.80;;
74267;SDS011;62638;51.362;12.472;2023-04-23T10:52:42;0.70;;;0.40;;
74267;SDS011;62638;51.362;12.472;2023-04-23T10:55:14;2.50;;;0.90;;
74267;SDS011;62638;51.362;12.472;2023-04-23T11:03:04;1.03;;;0.73;;
74267;SDS011;62638;51.362;12.472;2023-04-23T11:05:50;1.77;;;0.77;;
74267;SDS011;62638;51.362;12.472;2023-04-23T11:08:15;2.23;;;1.03;;
74267;SDS011;62638;51.362;12.472;2023-04-23T11:11:14;1.73;;;1.33;;
74267;SDS011;62638;51.362;12.472;2023-04-23T11:13:32;2.22;;;1.38;;
74267;SDS011;62638;51.362;12.472;2023-04-23T11:24:22;1.60;;;1.08;;
74267;SDS011;62638;51.362;12.472;2023-04-23T11:26:50;2.20;;;1.27;;
74267;SDS011;62638;51.362;12.472;2023-04-23T11:29:17;2.05;;;1.30;;
74267;SDS011;62638;51.362;12.472;2023-04-23T11:31:46;3.17;;;1.73;;
74267;SDS011;62638;51.362;12.472;2023-04-23T11:34:12;3.00;;;1.42;;
74267;SDS011;62638;51.362;12.472;2023-04-23T11:36:37;1.58;;;1.15;;
74267;SDS011;62638;51.362;12.472;2023-04-23T11:39:03;2.08;;;1.48;;
74267;SDS011;62638;51.362;12.472;2023-04-23T11:41:30;2.92;;;1.48;;
74267;SDS011;62638;51.362;12.472;2023-04-23T11:43:55;2.90;;;1.20;;
74267;SDS011;62638;51.362;12.472;2023-04-23T11:46:22;1.52;;;1.05;;
74267;SDS011;62638;51.362;12.472;2023-04-23T11:48:48;1.48;;;1.27;;
74267;SDS011;62638;51.362;12.472;2023-04-23T11:51:13;1.90;;;0.77;;
74267;SDS011;62638;51.362;12.472;2023-04-23T11:53:44;1.02;;;0.80;;
74267;SDS011;62638;51.362;12.472;2023-04-23T11:56:10;2.15;;;0.88;;
74267;SDS011;62638;51.362;12.472;2023-04-23T11:58:35;1.20;;;0.83;;
74267;SDS011;62638;51.362;12.472;2023-04-23T12:01:01;1.17;;;0.83;;
74267;SDS011;62638;51.362;12.472;2023-04-23T12:03:26;1.50;;;1.20;;
74267;SDS011;62638;51.362;12.472;2023-04-23T12:05:53;1.65;;;1.10;;
74267;SDS011;62638;51.362;12.472;2023-04-23T12:08:19;1.45;;;0.80;;
74267;SDS011;62638;51.362;12.472;2023-04-23T12:15:49;0.82;;;0.73;;
74267;SDS011;62638;51.362;12.472;2023-04-23T12:18:16;0.88;;;0.80;;
74267;SDS011;62638;51.362;12.472;2023-04-23T12:20:43;1.58;;;1.02;;
74267;SDS011;62638;51.362;12.472;2023-04-23T12:23:08;1.25;;;1.08;;
74267;SDS011;62638;51.362;12.472;2023-04-23T12:25:34;2.35;;;0.90;;
74267;SDS011;62638;51.362;12.472;2023-04-23T12:28:03;2.75;;;0.77;;
74267;SDS011;62638;51.362;12.472;2023-04-23T12:30:33;2.88;;;0.95;;
74267;SDS011;62638;51.362;12.472;2023-04-23T12:33:02;7.80;;;2.55;;
74267;SDS011;62638;51.362;12.472;2023-04-23T12:35:38;1.90;;;0.98;;
74267;SDS011;62638;51.362;12.472;2023-04-23T12:38:24;2.15;;;1.00;;
74267;SDS011;62638;51.362;12.472;2023-04-23T12:40:57;0.68;;;0.63;;
74267;SDS011;62638;51.362;12.472;2023-04-23T12:43:25;1.17;;;0.70;;
74267;SDS011;62638;51.362;12.472;2023-04-23T12:45:51;0.68;;;0.65;;
74267;SDS011;62638;51.362;12.472;2023-04-23T12:48:17;0.70;;;0.70;;
74267;SDS011;62638;51.362;12.472;2023-04-23T12:50:46;0.68;;;0.45;;
74267;SDS011;62638;51.362;12.472;2023-04-23T12:53:12;0.70;;;0.50;;
74267;SDS011;62638;51.362;12.472;2023-04-23T12:55:37;1.33;;;0.63;;
74267;SDS011;62638;51.362;12.472;2023-04-23T12:58:04;0.68;;;0.68;;
74267;SDS011;62638;51.362;12.472;2023-04-23T13:00:29;0.80;;;0.55;;
74267;SDS011;62638;51.362;12.472;2023-04-23T13:02:55;4.22;;;1.00;;
74267;SDS011;62638;51.362;12.472;2023-04-23T13:05:20;1.23;;;0.70;;
74267;SDS011;62638;51.362;12.472;2023-04-23T13:07:46;1.95;;;0.60;;
74267;SDS011;62638;51.362;12.472;2023-04-23T13:10:11;1.23;;;1.00;;
74267;SDS011;62638;51.362;12.472;2023-04-23T13:12:36;0.52;;;0.50;;
74267;SDS011;62638;51.362;12.472;2023-04-23T13:15:01;2.00;;;0.60;;
74267;SDS011;62638;51.362;12.472;2023-04-23T13:17:27;0.50;;;0.50;;
74267;SDS011;62638;51.362;12.472;2023-04-23T13:19:53;2.03;;;0.73;;
74267;SDS011;62638;51.362;12.472;2023-04-23T13:22:19;0.80;;;0.50;;
74267;SDS011;62638;51.362;12.472;2023-04-23T13:24:45;1.23;;;0.82;;
74267;SDS011;62638;51.362;12.472;2023-04-23T13:27:10;1.03;;;0.70;;
74267;SDS011;62638;51.362;12.472;2023-04-23T13:29:36;1.15;;;0.70;;
74267;SDS011;62638;51.362;12.472;2023-04-23T13:32:01;1.17;;;0.63;;
74267;SDS011;62638;51.362;12.472;2023-04-23T13:34:26;0.90;;;0.70;;
74267;SDS011;62638;51.362;12.472;2023-04-23T13:36:51;1.13;;;0.85;;
74267;SDS011;62638;51.362;12.472;2023-04-23T13:39:17;1.17;;;0.73;;
74267;SDS011;62638;51.362;12.472;2023-04-23T13:41:44;0.85;;;0.60;;
74267;SDS011;62638;51.362;12.472;2023-04-23T13:44:09;1.02;;;0.57;;
74267;SDS011;62638;51.362;12.472;2023-04-23T13:46:34;1.65;;;0.80;;
74267;SDS011;62638;51.362;12.472;2023-04-23T15:04:49;2.67;;;0.60;;
74267;SDS011;62638;51.362;12.472;2023-04-23T15:07:14;0.85;;;0.65;;
74267;SDS011;62638;51.362;12.472;2023-04-23T15:09:39;1.05;;;0.65;;
74267;SDS011;62638;51.362;12.472;2023-04-23T15:12:05;0.80;;;0.60;;
74267;SDS011;62638;51.362;12.472;2023-04-23T15:18:03;2.70;;;0.70;;
74267;SDS011;62638;51.362;12.472;2023-04-23T15:20:29;1.17;;;0.90;;
74267;SDS011;62638;51.362;12.472;2023-04-23T15:22:55;1.97;;;0.50;;
74267;SDS011;62638;51.362;12.472;2023-04-23T15:25:20;1.27;;;0.73;;
74267;SDS011;62638;51.362;12.472;2023-04-23T15:27:45;1.83;;;0.93;;
74267;SDS011;62638;51.362;12.472;2023-04-23T15:30:11;1.33;;;0.60;;
74267;SDS011;62638;51.362;12.472;2023-04-23T15:32:36;1.58;;;0.80;;
74267;SDS011;62638;51.362;12.472;2023-04-23T15:35:02;0.63;;;0.50;;
74267;SDS011;62638;51.362;12.472;2023-04-23T15:37:27;1.52;;;0.98;;
74267;SDS011;62638;51.362;12.472;2023-04-23T15:39:56;1.30;;;0.73;;
74267;SDS011;62638;51.362;12.472;2023-04-23T15:42:22;0.63;;;0.50;;
74267;SDS011;62638;51.362;12.472;2023-04-23T15:44:49;1.55;;;0.90;;
74267;SDS011;62638;51.362;12.472;2023-04-23T15:47:15;0.63;;;0.63;;
74267;SDS011;62638;51.362;12.472;2023-04-23T15:49:40;1.60;;;0.70;;
74267;SDS011;62638;51.362;12.472;2023-04-23T15:52:06;0.73;;;0.60;;
74267;SDS011;62638;51.362;12.472;2023-04-23T15:54:31;2.13;;;1.00;;
74267;SDS011;62638;51.362;12.472;2023-04-23T15:56:57;1.70;;;0.88;;
74267;SDS011;62638;51.362;12.472;2023-04-23T15:59:22;1.23;;;0.73;;
74267;SDS011;62638;51.362;12.472;2023-04-23T16:01:47;1.27;;;1.00;;
74267;SDS011;62638;51.362;12.472;2023-04-23T16:04:13;1.98;;;0.90;;
74267;SDS011;62638;51.362;12.472;2023-04-23T16:06:39;1.25;;;0.70;;
74267;SDS011;62638;51.362;12.472;2023-04-23T16:09:04;2.30;;;0.83;;
74267;SDS011;62638;51.362;12.472;2023-04-23T16:11:33;3.00;;;0.95;;
74267;SDS011;62638;51.362;12.472;2023-04-23T16:13:59;1.17;;;0.73;;